createdAt,value
2022-09-01T00:01:22.015Z,18.10
2022-09-01T00:05:07.734Z,18.00
2022-09-01T00:08:54.931Z,18.00
2022-09-01T00:12:37.588Z,17.90
2022-09-01T00:16:20.857Z,17.80
2022-09-01T00:20:04.169Z,17.80
2022-09-01T00:23:46.707Z,17.80
2022-09-01T00:27:31.046Z,17.60
2022-09-01T00:31:15.098Z,17.70
2022-09-01T00:34:57.063Z,17.60
2022-09-01T00:38:39.259Z,17.50
2022-09-01T00:42:21.180Z,17.50
2022-09-01T00:46:09.449Z,17.40
2022-09-01T00:49:53.512Z,17.40
2022-09-01T00:53:36.341Z,17.40
2022-09-01T00:57:18.416Z,17.30
2022-09-01T01:01:00.315Z,17.20
2022-09-01T01:04:43.844Z,17.20
2022-09-01T01:08:34.689Z,17.20
2022-09-01T01:12:18.276Z,17.10
2022-09-01T01:16:00.315Z,17.10
2022-09-01T01:20:15.909Z,17.10
2022-09-01T01:24:24.447Z,17.00
2022-09-01T01:28:11.500Z,17.00
2022-09-01T01:31:53.989Z,16.90
2022-09-01T01:35:36.177Z,16.90
2022-09-01T01:39:25.342Z,16.80
2022-09-01T01:43:08.337Z,16.90
2022-09-01T01:46:54.593Z,16.80
2022-09-01T01:50:38.145Z,16.80
2022-09-01T01:54:20.391Z,16.80
2022-09-01T01:58:02.312Z,16.80
2022-09-01T02:01:49.387Z,16.80
2022-09-01T02:05:33.491Z,16.80
2022-09-01T02:09:21.394Z,16.90
2022-09-01T02:13:07.279Z,17.00
2022-09-01T02:16:49.499Z,17.00
2022-09-01T02:20:32.874Z,17.00
2022-09-01T02:24:15.788Z,17.00
2022-09-01T02:27:57.781Z,17.10
2022-09-01T02:31:40.023Z,17.10
2022-09-01T02:35:21.987Z,17.10
2022-09-01T02:39:04.203Z,17.10
2022-09-01T02:42:53.172Z,17.10
2022-09-01T02:46:38.170Z,17.10
2022-09-01T02:50:22.600Z,17.10
2022-09-01T02:54:04.724Z,17.10
2022-09-01T02:57:55.856Z,17.00
2022-09-01T03:01:38.068Z,17.00
2022-09-01T03:05:25.458Z,16.90
2022-09-01T03:09:11.925Z,16.90
2022-09-01T03:12:55.028Z,16.80
2022-09-01T03:16:39.363Z,16.80
2022-09-01T03:20:22.016Z,16.70
2022-09-01T03:24:04.691Z,16.70
2022-09-01T03:27:47.438Z,16.70
2022-09-01T03:31:31.129Z,16.70
2022-09-01T03:35:13.425Z,16.70
2022-09-01T03:38:55.939Z,16.60
2022-09-01T03:42:37.977Z,16.60
2022-09-01T03:46:22.508Z,16.60
2022-09-01T03:50:04.522Z,16.60
2022-09-01T03:53:47.403Z,16.60
2022-09-01T03:57:31.931Z,16.60
2022-09-01T04:01:16.261Z,16.60
2022-09-01T04:04:59.091Z,16.50
2022-09-01T04:08:41.113Z,16.50
2022-09-01T04:12:25.969Z,16.50
2022-09-01T04:16:36.876Z,16.50
2022-09-01T04:20:20.975Z,16.50
2022-09-01T04:24:06.128Z,16.60
2022-09-01T04:27:48.128Z,16.50
2022-09-01T04:31:31.830Z,16.50
2022-09-01T04:35:17.197Z,16.50
2022-09-01T04:39:01.652Z,16.50
2022-09-01T04:42:45.171Z,16.50
2022-09-01T04:46:31.460Z,16.50
2022-09-01T04:50:18.051Z,16.50
2022-09-01T04:54:01.919Z,16.50
2022-09-01T04:57:49.633Z,16.50
2022-09-01T05:01:32.070Z,16.50
2022-09-01T05:05:14.180Z,16.50
2022-09-01T05:08:59.554Z,16.60
2022-09-01T05:12:41.562Z,16.60
2022-09-01T05:16:27.351Z,16.60
2022-09-01T05:20:10.437Z,16.60
2022-09-01T05:23:54.431Z,16.70
2022-09-01T05:27:36.923Z,16.70
2022-09-01T05:31:19.859Z,16.70
2022-09-01T05:35:02.499Z,16.70
2022-09-01T05:38:45.541Z,16.70
2022-09-01T05:42:28.676Z,16.70
2022-09-01T05:46:11.797Z,16.70
2022-09-01T05:49:53.864Z,16.80
2022-09-01T05:53:36.191Z,16.80
2022-09-01T05:57:33.807Z,16.80
2022-09-01T06:01:24.793Z,16.80
2022-09-01T06:05:07.721Z,16.80
2022-09-01T06:08:50.961Z,16.80
2022-09-01T06:12:34.275Z,16.90
2022-09-01T06:16:18.118Z,16.90
2022-09-01T06:19:59.965Z,17.00
2022-09-01T06:23:54.156Z,17.00
2022-09-01T06:27:42.581Z,17.10
2022-09-01T06:31:26.673Z,17.10
2022-09-01T06:35:08.828Z,17.20
2022-09-01T06:38:52.594Z,17.20
2022-09-01T06:42:35.417Z,17.20
2022-09-01T06:46:18.107Z,17.20
2022-09-01T06:50:00.806Z,17.20
2022-09-01T06:53:44.405Z,17.30
2022-09-01T07:01:30.497Z,17.40
2022-09-01T07:09:20.328Z,17.50
2022-09-01T07:13:25.491Z,17.50
2022-09-01T07:17:23.775Z,17.50
2022-09-01T07:21:36.233Z,17.50
2022-09-01T07:25:12.954Z,17.60
2022-09-01T07:29:04.315Z,17.70
2022-09-01T07:32:50.708Z,17.70
2022-09-01T07:37:16.160Z,17.80
2022-09-01T07:44:45.031Z,17.90
2022-09-01T07:48:36.633Z,18.00
2022-09-01T07:52:31.509Z,18.00
2022-09-01T07:56:13.399Z,18.10
2022-09-01T07:59:56.109Z,18.20
2022-09-01T08:03:38.472Z,18.30
2022-09-01T08:07:20.655Z,18.40
2022-09-01T08:11:04.619Z,18.50
2022-09-01T08:14:46.808Z,18.50
2022-09-01T08:18:28.730Z,18.60
2022-09-01T08:22:10.595Z,18.70
2022-09-01T08:25:53.424Z,18.90
2022-09-01T08:29:35.306Z,19.00
2022-09-01T08:33:17.181Z,19.10
2022-09-01T08:36:59.025Z,19.30
2022-09-01T08:40:42.078Z,19.50
2022-09-01T08:45:02.772Z,19.70
2022-09-01T08:53:10.488Z,20.00
2022-09-01T08:57:01.971Z,20.10
2022-09-01T09:00:51.432Z,20.20
2022-09-01T09:05:19.158Z,20.40
2022-09-01T09:09:03.622Z,20.50
2022-09-01T09:13:21.255Z,20.50
2022-09-01T09:17:04.614Z,20.60
2022-09-01T09:20:46.560Z,20.70
2022-09-01T09:24:56.417Z,20.90
2022-09-01T09:28:40.164Z,21.00
2022-09-01T09:32:35.141Z,21.20
2022-09-01T09:36:36.618Z,21.40
2022-09-01T09:40:26.603Z,21.60
2022-09-01T09:44:18.587Z,21.80
2022-09-01T09:48:05.003Z,22.10
2022-09-01T09:51:50.172Z,22.30
2022-09-01T09:55:31.981Z,22.60
2022-09-01T09:59:56.646Z,23.20
2022-09-01T10:03:45.714Z,23.90
2022-09-01T10:07:32.107Z,24.50
2022-09-01T10:11:35.563Z,25.00
2022-09-01T10:15:20.298Z,25.40
2022-09-01T10:19:02.667Z,25.70
2022-09-01T10:22:48.565Z,26.10
2022-09-01T10:26:37.748Z,26.80
2022-09-01T10:30:21.678Z,27.50
2022-09-01T10:34:06.137Z,28.20
2022-09-01T10:37:49.048Z,28.80
2022-09-01T10:41:43.460Z,29.50
2022-09-01T10:45:31.431Z,30.30
2022-09-01T10:49:28.403Z,30.80
2022-09-01T10:53:18.699Z,31.20
2022-09-01T10:57:08.693Z,31.30
2022-09-01T11:04:55.056Z,31.10
2022-09-01T11:09:02.344Z,30.90
2022-09-01T11:13:00.425Z,30.70
2022-09-01T11:16:46.228Z,30.50
2022-09-01T11:20:37.252Z,30.10
2022-09-01T11:24:52.047Z,29.90
2022-09-01T11:28:42.015Z,29.80
2022-09-01T11:32:34.909Z,29.40
2022-09-01T11:36:45.898Z,29.10
2022-09-01T11:40:32.506Z,28.80
2022-09-01T11:44:30.774Z,28.40
2022-09-01T11:48:14.590Z,28.00
2022-09-01T11:51:57.666Z,27.60
2022-09-01T11:55:51.603Z,27.30
2022-09-01T11:59:38.002Z,26.90
2022-09-01T12:03:23.532Z,26.70
2022-09-01T12:07:10.803Z,26.50
2022-09-01T12:11:05.464Z,26.30
2022-09-01T12:15:15.964Z,26.20
2022-09-01T12:19:00.819Z,26.30
2022-09-01T12:22:43.232Z,26.30
2022-09-01T12:26:30.216Z,26.60
2022-09-01T12:30:12.683Z,26.80
2022-09-01T12:33:56.512Z,26.90
2022-09-01T12:37:38.981Z,26.90
2022-09-01T12:41:39.494Z,26.90
2022-09-01T12:45:40.242Z,26.80
2022-09-01T12:49:36.646Z,26.60
2022-09-01T12:53:26.068Z,26.50
2022-09-01T12:57:08.316Z,26.30
2022-09-01T13:01:04.047Z,26.20
2022-09-01T13:04:45.967Z,26.20
2022-09-01T13:08:35.135Z,26.10
2022-09-01T13:12:22.005Z,26.20
2022-09-01T13:16:12.672Z,26.20
2022-09-01T13:19:55.108Z,26.20
2022-09-01T13:23:37.375Z,26.20
2022-09-01T13:27:21.039Z,26.10
2022-09-01T13:35:07.563Z,26.10
2022-09-01T13:38:50.660Z,26.10
2022-09-01T13:42:37.503Z,26.00
2022-09-01T13:46:19.341Z,26.00
2022-09-01T13:50:10.785Z,26.00
2022-09-01T13:53:53.755Z,25.90
2022-09-01T13:57:36.060Z,25.90
2022-09-01T14:01:19.219Z,25.80
2022-09-01T14:05:01.076Z,25.80
2022-09-01T14:08:42.912Z,26.40
2022-09-01T14:12:24.876Z,27.70
2022-09-01T14:16:11.826Z,28.50
2022-09-01T14:19:53.724Z,28.60
2022-09-01T14:23:35.537Z,28.70
2022-09-01T14:27:17.387Z,28.80
2022-09-01T14:31:02.138Z,29.50
2022-09-01T14:34:44.752Z,29.90
2022-09-01T14:38:26.562Z,30.10
2022-09-01T14:42:11.758Z,30.80
2022-09-01T14:46:06.632Z,31.20
2022-09-01T14:49:48.501Z,31.10
2022-09-01T14:53:31.904Z,31.30
2022-09-01T14:57:37.224Z,31.60
2022-09-01T15:01:33.832Z,32.00
2022-09-01T15:05:16.698Z,32.10
2022-09-01T15:08:59.868Z,32.10
2022-09-01T15:12:41.828Z,32.30
2022-09-01T15:16:26.388Z,32.30
2022-09-01T15:20:27.991Z,32.30
2022-09-01T15:24:10.948Z,32.20
2022-09-01T15:27:53.408Z,32.10
2022-09-01T15:31:35.420Z,31.90
2022-09-01T15:35:18.207Z,31.70
2022-09-01T15:39:02.406Z,31.50
2022-09-01T15:42:44.424Z,31.00
2022-09-01T15:46:31.991Z,30.30
2022-09-01T15:50:21.372Z,29.70
2022-09-01T15:54:30.168Z,29.10
2022-09-01T15:58:14.507Z,28.70
2022-09-01T16:01:57.553Z,28.40
2022-09-01T16:05:41.028Z,28.20
2022-09-01T16:09:22.871Z,27.90
2022-09-01T16:13:04.781Z,27.80
2022-09-01T16:16:46.635Z,27.70
2022-09-01T16:21:04.951Z,27.60
2022-09-01T16:24:50.268Z,27.40
2022-09-01T16:28:35.784Z,27.20
2022-09-01T16:32:21.351Z,26.90
2022-09-01T16:36:17.614Z,26.70
2022-09-01T16:40:16.772Z,26.50
2022-09-01T16:44:04.652Z,26.30
2022-09-01T16:48:05.121Z,26.10
2022-09-01T16:51:58.908Z,25.90
2022-09-01T16:55:55.854Z,25.80
2022-09-01T16:59:59.459Z,25.60
2022-09-01T17:04:05.614Z,25.40
2022-09-01T17:08:06.075Z,25.20
2022-09-01T17:11:56.252Z,25.10
2022-09-01T17:15:41.751Z,25.00
2022-09-01T17:19:25.709Z,24.90
2022-09-01T17:23:15.526Z,24.80
2022-09-01T17:27:21.175Z,24.70
2022-09-01T17:31:20.613Z,24.50
2022-09-01T17:35:20.971Z,24.50
2022-09-01T17:39:26.535Z,24.30
2022-09-01T17:43:26.351Z,24.20
2022-09-01T17:47:40.850Z,24.10
2022-09-01T17:51:43.988Z,24.00
2022-09-01T17:55:25.766Z,23.80
2022-09-01T17:59:31.857Z,23.70
2022-09-01T18:03:34.648Z,23.60
2022-09-01T18:07:16.464Z,23.50
2022-09-01T18:11:05.965Z,23.40
2022-09-01T18:14:54.747Z,23.30
2022-09-01T18:18:42.734Z,23.20
2022-09-01T18:22:25.862Z,23.00
2022-09-01T18:26:35.321Z,22.80
2022-09-01T18:30:42.836Z,22.80
2022-09-01T18:35:13.403Z,22.60
2022-09-01T18:39:02.007Z,22.50
2022-09-01T18:42:48.422Z,22.40
2022-09-01T18:46:34.028Z,22.30
2022-09-01T18:50:22.080Z,22.30
2022-09-01T18:54:15.925Z,22.20
2022-09-01T18:58:03.160Z,22.10
2022-09-01T19:02:26.771Z,21.90
2022-09-01T19:06:21.759Z,21.90
2022-09-01T19:10:10.300Z,21.80
2022-09-01T19:18:31.139Z,21.60
2022-09-01T19:22:33.725Z,21.50
2022-09-01T19:26:22.781Z,21.40
2022-09-01T19:30:07.044Z,21.30
2022-09-01T19:33:54.959Z,21.30
2022-09-01T19:37:37.907Z,21.20
2022-09-01T19:41:26.612Z,21.10
2022-09-01T19:45:19.313Z,21.10
2022-09-01T19:49:03.843Z,21.00
2022-09-01T19:53:00.726Z,20.90
2022-09-01T19:56:57.227Z,20.80
2022-09-01T20:01:11.373Z,20.80
2022-09-01T20:05:01.566Z,20.70
2022-09-01T20:09:01.530Z,20.60
2022-09-01T20:12:55.070Z,20.60
2022-09-01T20:16:57.668Z,20.50
2022-09-01T20:20:45.200Z,20.40
2022-09-01T20:24:37.699Z,20.40
2022-09-01T20:28:49.922Z,20.30
2022-09-01T20:32:57.605Z,20.30
2022-09-01T20:36:46.203Z,20.20
2022-09-01T20:40:35.792Z,20.10
2022-09-01T20:44:31.432Z,20.10
2022-09-01T20:48:16.722Z,20.10
2022-09-01T20:52:16.255Z,20.00
2022-09-01T20:56:17.634Z,20.00
2022-09-01T21:00:23.097Z,20.00
2022-09-01T21:04:30.327Z,20.10
2022-09-01T21:08:37.085Z,20.00
2022-09-01T21:12:38.491Z,20.10
2022-09-01T21:16:32.287Z,20.10
2022-09-01T21:20:26.527Z,20.10
2022-09-01T21:24:08.391Z,20.10
2022-09-01T21:27:55.461Z,20.10
2022-09-01T21:31:37.297Z,20.10
2022-09-01T21:35:21.252Z,20.10
2022-09-01T21:39:03.163Z,20.10
2022-09-01T21:42:49.707Z,20.10
2022-09-01T21:46:31.719Z,20.10
2022-09-01T21:50:15.913Z,20.00
2022-09-01T21:53:57.719Z,20.00
2022-09-01T21:57:39.877Z,20.00
2022-09-01T22:01:21.937Z,20.00
2022-09-01T22:05:05.943Z,20.00
2022-09-01T22:08:47.844Z,19.90
2022-09-01T22:12:31.043Z,20.00
2022-09-01T22:16:17.934Z,20.00
2022-09-01T22:20:00.991Z,20.00
2022-09-01T22:23:44.139Z,19.90
2022-09-01T22:27:26.316Z,19.90
2022-09-01T22:31:14.136Z,19.80
2022-09-01T22:34:56.016Z,19.70
2022-09-01T22:38:37.884Z,19.70
2022-09-01T22:42:19.781Z,19.60
2022-09-01T22:46:01.889Z,19.50
2022-09-01T22:49:43.795Z,19.50
2022-09-01T22:53:25.708Z,19.40
2022-09-01T22:57:07.630Z,19.40
2022-09-01T23:00:53.671Z,19.30
2022-09-01T23:04:36.234Z,19.30
2022-09-01T23:08:18.103Z,19.30
2022-09-01T23:12:00.021Z,19.30
2022-09-01T23:15:41.880Z,19.30
2022-09-01T23:19:24.628Z,19.30
2022-09-01T23:23:06.422Z,19.30
2022-09-01T23:26:48.828Z,19.30
2022-09-01T23:30:30.661Z,19.30
2022-09-01T23:34:13.343Z,19.30
2022-09-01T23:37:55.418Z,19.30
2022-09-01T23:41:38.733Z,19.30
2022-09-01T23:45:20.613Z,19.30
2022-09-01T23:49:03.732Z,19.30
2022-09-01T23:52:46.061Z,19.20
2022-09-01T23:56:29.730Z,19.20
